createdAt,value
2022-11-29T00:00:03.686Z,84.45
2022-11-29T00:02:33.842Z,76.07
2022-11-29T00:05:00.798Z,82.38
2022-11-29T00:07:27.749Z,83.82
2022-11-29T00:09:54.701Z,73.78
2022-11-29T00:12:21.594Z,73.90
2022-11-29T00:14:48.560Z,75.43
2022-11-29T00:17:15.498Z,78.03
2022-11-29T00:19:42.540Z,70.85
2022-11-29T00:22:09.499Z,72.70
2022-11-29T00:24:36.751Z,79.40
2022-11-29T00:27:03.962Z,73.38
2022-11-29T00:29:31.008Z,69.20
2022-11-29T00:31:57.937Z,74.80
2022-11-29T00:34:24.931Z,68.25
2022-11-29T00:36:51.911Z,71.13
2022-11-29T00:39:19.243Z,70.68
2022-11-29T00:41:46.179Z,69.10
2022-11-29T00:44:19.671Z,67.75
2022-11-29T00:46:48.023Z,71.10
2022-11-29T00:49:15.106Z,68.97
2022-11-29T00:51:42.059Z,69.57
2022-11-29T00:54:08.951Z,70.20
2022-11-29T00:56:35.862Z,68.20
2022-11-29T00:59:02.878Z,66.65
2022-11-29T01:01:29.959Z,71.00
2022-11-29T01:03:56.899Z,67.38
2022-11-29T01:06:23.832Z,64.88
2022-11-29T01:08:50.808Z,63.83
2022-11-29T01:11:25.673Z,65.40
2022-11-29T01:13:58.723Z,63.70
2022-11-29T01:16:28.589Z,63.72
2022-11-29T01:18:56.022Z,61.85
2022-11-29T01:21:24.938Z,62.15
2022-11-29T01:23:53.631Z,62.88
2022-11-29T01:26:26.187Z,56.75
2022-11-29T01:28:56.189Z,61.75
2022-11-29T01:31:27.171Z,61.75
2022-11-29T01:34:01.195Z,59.05
2022-11-29T01:36:29.240Z,66.40
2022-11-29T01:38:58.515Z,61.00
2022-11-29T01:41:29.923Z,62.22
2022-11-29T01:43:59.850Z,58.08
2022-11-29T01:46:36.068Z,57.28
2022-11-29T01:49:18.199Z,58.78
2022-11-29T01:52:16.143Z,56.95
2022-11-29T01:54:48.670Z,58.75
2022-11-29T01:57:16.811Z,40.22
2022-11-29T01:59:49.680Z,55.60
2022-11-29T02:02:27.077Z,58.63
2022-11-29T02:04:54.460Z,54.67
2022-11-29T02:07:21.415Z,63.05
2022-11-29T02:09:48.414Z,53.50
2022-11-29T02:12:46.912Z,58.10
2022-11-29T02:15:41.592Z,55.97
2022-11-29T02:19:21.635Z,58.45
2022-11-29T02:22:13.834Z,57.53
2022-11-29T02:25:25.207Z,59.90
2022-11-29T02:28:41.768Z,54.28
2022-11-29T02:31:38.737Z,59.08
2022-11-29T02:34:34.967Z,57.95
2022-11-29T02:37:47.810Z,58.28
2022-11-29T02:40:29.974Z,60.85
2022-11-29T02:43:05.434Z,56.75
2022-11-29T02:46:27.754Z,61.05
2022-11-29T02:49:18.805Z,56.42
2022-11-29T02:52:30.217Z,55.63
2022-11-29T02:55:09.522Z,57.65
2022-11-29T02:57:52.615Z,55.00
2022-11-29T03:03:09.479Z,53.55
2022-11-29T03:05:57.516Z,53.92
2022-11-29T03:09:12.091Z,55.65
2022-11-29T03:12:31.172Z,53.60
2022-11-29T03:15:21.386Z,52.30
2022-11-29T03:18:48.319Z,54.47
2022-11-29T03:21:44.865Z,55.00
2022-11-29T03:24:48.451Z,56.65
2022-11-29T03:27:35.240Z,52.63
2022-11-29T03:30:11.846Z,48.28
2022-11-29T03:32:54.895Z,51.03
2022-11-29T03:35:39.720Z,51.22
2022-11-29T03:38:41.108Z,52.55
2022-11-29T03:41:31.503Z,51.13
2022-11-29T03:44:11.348Z,48.08
2022-11-29T03:47:19.506Z,48.88
2022-11-29T03:50:04.748Z,51.70
2022-11-29T03:52:56.455Z,51.65
2022-11-29T03:55:54.484Z,48.83
2022-11-29T03:58:56.642Z,50.55
2022-11-29T04:02:13.089Z,46.95
2022-11-29T04:05:16.436Z,47.53
2022-11-29T04:07:55.294Z,46.20
2022-11-29T04:10:47.547Z,47.45
2022-11-29T04:14:05.339Z,48.83
2022-11-29T04:17:06.903Z,48.03
2022-11-29T04:20:04.630Z,50.28
2022-11-29T04:23:20.003Z,52.00
2022-11-29T04:25:58.754Z,54.70
2022-11-29T04:29:16.152Z,50.33
2022-11-29T04:32:44.713Z,49.30
2022-11-29T04:35:34.462Z,50.10
2022-11-29T04:38:47.886Z,53.63
2022-11-29T04:41:35.149Z,52.22
2022-11-29T04:44:35.194Z,51.90
2022-11-29T04:47:49.906Z,51.20
2022-11-29T04:50:37.011Z,53.17
2022-11-29T04:53:25.518Z,50.95
2022-11-29T04:56:20.467Z,52.30
2022-11-29T04:59:17.762Z,52.50
2022-11-29T05:02:04.730Z,49.05
2022-11-29T05:04:58.181Z,54.42
2022-11-29T05:11:01.131Z,52.63
2022-11-29T05:14:03.296Z,49.28
2022-11-29T05:17:21.823Z,55.72
2022-11-29T05:20:28.727Z,53.15
2022-11-29T05:23:38.805Z,54.45
2022-11-29T05:26:49.242Z,53.92
2022-11-29T05:29:31.818Z,55.58
2022-11-29T05:32:04.700Z,50.72
2022-11-29T05:37:57.098Z,53.17
2022-11-29T05:41:13.825Z,51.75
2022-11-29T05:43:52.593Z,51.63
2022-11-29T05:46:53.930Z,52.35
2022-11-29T05:50:05.740Z,50.67
2022-11-29T05:53:10.560Z,52.88
2022-11-29T05:56:02.066Z,50.65
2022-11-29T05:58:56.955Z,51.95
2022-11-29T06:02:00.295Z,51.60
2022-11-29T06:04:41.452Z,50.92
2022-11-29T06:07:22.664Z,55.08
2022-11-29T06:10:13.743Z,50.38
2022-11-29T06:12:44.921Z,48.25
2022-11-29T06:15:37.418Z,51.75
2022-11-29T06:18:28.199Z,49.80
2022-11-29T06:21:07.363Z,53.13
2022-11-29T06:24:05.978Z,53.33
2022-11-29T06:27:06.116Z,51.13
2022-11-29T06:30:20.899Z,54.90
2022-11-29T06:33:28.692Z,57.60
2022-11-29T06:36:25.610Z,54.20
2022-11-29T06:38:52.778Z,49.90
2022-11-29T06:41:23.596Z,53.20
2022-11-29T06:43:51.078Z,53.88
2022-11-29T06:46:51.759Z,53.22
2022-11-29T06:49:34.606Z,54.25
2022-11-29T06:52:37.783Z,54.60
2022-11-29T06:55:42.279Z,53.45
2022-11-29T06:58:40.189Z,52.65
2022-11-29T07:01:47.032Z,54.55
2022-11-29T07:04:45.769Z,52.58
2022-11-29T07:07:19.607Z,50.45
2022-11-29T07:09:53.784Z,52.72
2022-11-29T07:12:21.156Z,51.65
2022-11-29T07:14:48.568Z,55.72
2022-11-29T07:17:56.351Z,54.80
2022-11-29T07:21:24.573Z,51.78
2022-11-29T07:24:22.730Z,52.60
2022-11-29T07:27:04.732Z,49.20
2022-11-29T07:29:57.884Z,58.63
2022-11-29T07:32:51.435Z,56.00
2022-11-29T07:35:53.174Z,56.85
2022-11-29T07:38:56.527Z,51.22
2022-11-29T07:41:51.650Z,52.60
2022-11-29T07:44:28.369Z,54.80
2022-11-29T07:46:55.348Z,53.67
2022-11-29T07:49:22.300Z,54.45
2022-11-29T07:51:49.499Z,55.47
2022-11-29T07:54:19.165Z,53.70
2022-11-29T07:56:46.519Z,54.38
2022-11-29T07:59:14.556Z,51.78
2022-11-29T08:01:41.820Z,55.58
2022-11-29T08:04:09.978Z,52.30
2022-11-29T08:06:37.339Z,57.53
2022-11-29T08:09:05.466Z,52.88
2022-11-29T08:11:32.434Z,58.15
2022-11-29T08:14:01.871Z,55.58
2022-11-29T08:16:29.181Z,57.83
2022-11-29T08:18:56.242Z,58.67
2022-11-29T08:21:23.367Z,56.53
2022-11-29T08:23:51.456Z,57.05
2022-11-29T08:26:20.212Z,53.63
2022-11-29T08:28:53.196Z,54.78
2022-11-29T08:44:19.611Z,58.20
2022-11-29T08:47:04.899Z,57.13
2022-11-29T08:49:31.856Z,54.05
2022-11-29T08:52:17.246Z,53.78
2022-11-29T08:54:44.734Z,54.10
2022-11-29T08:59:58.791Z,53.40
2022-11-29T09:02:25.854Z,54.42
2022-11-29T09:04:52.780Z,53.30
2022-11-29T09:07:19.704Z,53.20
2022-11-29T09:09:46.686Z,56.22
2022-11-29T09:12:13.612Z,53.00
2022-11-29T09:14:40.553Z,55.03
2022-11-29T09:17:08.516Z,58.13
2022-11-29T09:19:35.417Z,54.47
2022-11-29T09:22:03.497Z,53.03
2022-11-29T09:24:30.860Z,54.75
2022-11-29T09:26:57.910Z,53.58
2022-11-29T09:29:24.781Z,54.83
2022-11-29T09:31:52.075Z,55.78
2022-11-29T09:34:19.147Z,57.28
2022-11-29T09:36:46.075Z,55.35
2022-11-29T09:39:12.999Z,56.53
2022-11-29T09:42:09.381Z,57.95
2022-11-29T09:45:09.521Z,54.42
2022-11-29T09:47:51.042Z,53.50
2022-11-29T09:50:42.991Z,53.55
2022-11-29T09:53:48.195Z,51.92
2022-11-29T09:56:30.908Z,58.90
2022-11-29T09:59:21.752Z,54.78
2022-11-29T10:02:25.195Z,53.75
2022-11-29T10:05:17.659Z,54.10
2022-11-29T10:08:00.846Z,54.72
2022-11-29T10:13:27.694Z,58.65
2022-11-29T10:16:03.146Z,53.97
2022-11-29T10:19:01.061Z,54.13
2022-11-29T10:21:37.044Z,57.95
2022-11-29T10:24:17.878Z,57.85
2022-11-29T10:26:44.846Z,56.17
2022-11-29T10:29:16.065Z,55.10
2022-11-29T10:31:49.403Z,56.03
2022-11-29T10:34:24.108Z,57.20
2022-11-29T10:37:01.261Z,53.90
2022-11-29T10:39:49.036Z,59.50
2022-11-29T10:42:43.095Z,58.47
2022-11-29T10:45:34.191Z,59.95
2022-11-29T10:48:14.043Z,61.80
2022-11-29T10:50:46.386Z,63.78
2022-11-29T10:53:26.912Z,62.65
2022-11-29T10:56:07.502Z,62.60
2022-11-29T10:58:36.338Z,67.25
2022-11-29T11:01:06.888Z,67.25
2022-11-29T11:03:52.806Z,70.43
2022-11-29T11:06:26.504Z,68.10
2022-11-29T11:09:12.346Z,69.07
2022-11-29T11:11:40.169Z,68.32
2022-11-29T11:14:34.592Z,64.70
2022-11-29T11:17:32.997Z,71.93
2022-11-29T11:20:19.437Z,67.40
2022-11-29T11:23:07.813Z,71.20
2022-11-29T11:25:39.509Z,66.10
2022-11-29T11:28:20.429Z,69.53
2022-11-29T11:31:02.776Z,68.18
2022-11-29T11:33:34.116Z,69.00
2022-11-29T11:36:14.105Z,69.65
2022-11-29T11:39:09.954Z,73.63
2022-11-29T11:42:00.529Z,70.13
2022-11-29T11:44:52.466Z,68.20
2022-11-29T11:47:31.024Z,70.22
2022-11-29T11:50:04.019Z,72.88
2022-11-29T11:55:35.721Z,72.25
2022-11-29T11:58:10.146Z,71.10
2022-11-29T12:03:55.983Z,71.55
2022-11-29T12:06:53.566Z,71.75
2022-11-29T12:09:55.684Z,70.22
2022-11-29T12:12:38.984Z,75.85
2022-11-29T12:15:29.506Z,70.95
2022-11-29T12:18:10.125Z,74.72
2022-11-29T12:20:52.742Z,68.30
2022-11-29T12:24:13.839Z,55.35
2022-11-29T12:26:59.361Z,69.65
2022-11-29T12:29:31.714Z,68.32
2022-11-29T12:32:20.330Z,68.37
2022-11-29T12:35:22.853Z,75.30
2022-11-29T12:38:10.773Z,72.00
2022-11-29T12:41:11.855Z,75.10
2022-11-29T12:44:14.047Z,69.95
2022-11-29T12:47:02.099Z,70.63
2022-11-29T12:50:20.074Z,69.43
2022-11-29T12:53:21.240Z,69.35
2022-11-29T12:55:54.166Z,69.55
2022-11-29T12:58:58.997Z,68.20
2022-11-29T13:02:03.943Z,67.57
2022-11-29T13:05:09.598Z,62.80
2022-11-29T13:07:48.775Z,65.35
2022-11-29T13:11:04.510Z,62.60
2022-11-29T13:13:47.738Z,61.50
2022-11-29T13:19:30.593Z,60.28
2022-11-29T13:22:30.000Z,60.60
2022-11-29T13:25:03.622Z,65.05
2022-11-29T13:27:42.526Z,62.15
2022-11-29T13:30:15.780Z,60.00
2022-11-29T13:32:56.209Z,58.30
2022-11-29T13:35:54.511Z,59.60
2022-11-29T13:38:37.078Z,66.15
2022-11-29T13:41:37.725Z,61.55
2022-11-29T13:44:48.889Z,58.78
2022-11-29T13:47:18.983Z,61.30
2022-11-29T13:50:27.296Z,57.40
2022-11-29T13:53:21.657Z,58.63
2022-11-29T13:56:01.160Z,63.00
2022-11-29T13:58:28.089Z,58.05
2022-11-29T14:01:09.662Z,60.75
2022-11-29T14:03:45.313Z,58.50
2022-11-29T14:06:21.726Z,60.20
2022-11-29T14:09:22.538Z,56.90
2022-11-29T14:11:58.939Z,61.55
2022-11-29T14:15:01.385Z,58.50
2022-11-29T14:18:15.950Z,56.53
2022-11-29T14:20:53.977Z,56.20
2022-11-29T14:23:44.471Z,55.72
2022-11-29T14:26:11.338Z,58.22
2022-11-29T14:28:41.608Z,65.13
2022-11-29T14:31:09.996Z,56.70
2022-11-29T14:34:05.376Z,56.42
2022-11-29T14:36:53.558Z,53.33
2022-11-29T14:39:47.870Z,58.53
2022-11-29T14:42:19.841Z,56.92
2022-11-29T14:44:56.439Z,58.58
2022-11-29T14:47:37.183Z,59.63
2022-11-29T14:50:10.748Z,56.75
2022-11-29T14:52:40.912Z,58.67
2022-11-29T14:55:29.535Z,57.22
2022-11-29T14:58:06.328Z,54.05
2022-11-29T15:00:33.330Z,56.13
2022-11-29T15:03:44.147Z,61.38
2022-11-29T15:06:26.029Z,57.45
2022-11-29T15:09:02.892Z,50.67
2022-11-29T15:12:01.435Z,54.15
2022-11-29T15:14:45.639Z,52.08
2022-11-29T15:17:43.151Z,55.40
2022-11-29T15:20:38.025Z,52.58
2022-11-29T15:23:14.930Z,56.78
2022-11-29T15:25:55.054Z,56.85
2022-11-29T15:28:26.626Z,56.95
2022-11-29T15:31:09.740Z,55.60
2022-11-29T15:36:21.044Z,55.05
2022-11-29T15:38:51.535Z,52.55
2022-11-29T15:41:31.855Z,54.22
2022-11-29T15:44:05.833Z,56.10
2022-11-29T15:46:35.753Z,53.65
2022-11-29T15:49:28.368Z,48.72
2022-11-29T15:52:02.187Z,52.57
2022-11-29T15:54:42.888Z,56.38
2022-11-29T15:57:25.075Z,50.53
2022-11-29T15:59:58.465Z,54.00
2022-11-29T16:02:31.589Z,53.83
2022-11-29T16:05:17.925Z,53.72
2022-11-29T16:07:48.022Z,53.05
2022-11-29T16:10:39.639Z,50.95
2022-11-29T16:13:39.541Z,50.63
2022-11-29T16:16:06.726Z,53.40
2022-11-29T16:18:34.905Z,51.03
2022-11-29T16:21:07.558Z,53.80
2022-11-29T16:23:42.894Z,56.58
2022-11-29T16:26:12.576Z,55.53
2022-11-29T16:28:50.684Z,60.75
2022-11-29T16:31:23.807Z,54.60
2022-11-29T16:33:52.790Z,54.35
2022-11-29T16:36:27.518Z,57.17
2022-11-29T16:39:20.566Z,54.42
2022-11-29T16:42:02.644Z,55.63
2022-11-29T16:45:32.512Z,55.10
2022-11-29T16:48:01.580Z,56.13
2022-11-29T16:50:33.132Z,60.40
2022-11-29T16:53:41.547Z,59.67
2022-11-29T16:56:38.533Z,58.75
2022-11-29T16:59:24.985Z,57.97
2022-11-29T17:01:54.685Z,60.35
2022-11-29T17:04:24.339Z,60.25
2022-11-29T17:06:56.245Z,57.58
2022-11-29T17:09:33.075Z,56.95
2022-11-29T17:12:02.882Z,60.08
2022-11-29T17:14:31.171Z,56.17
2022-11-29T17:17:02.341Z,59.83
2022-11-29T17:19:30.628Z,59.33
2022-11-29T17:21:58.561Z,60.42
2022-11-29T17:24:25.626Z,58.17
2022-11-29T17:26:52.843Z,56.25
2022-11-29T17:29:19.993Z,58.55
2022-11-29T17:31:50.494Z,55.22
2022-11-29T17:34:17.783Z,58.63
2022-11-29T17:36:45.276Z,56.88
2022-11-29T17:39:12.766Z,58.05
2022-11-29T17:41:39.701Z,53.72
2022-11-29T17:44:06.741Z,58.00
2022-11-29T17:46:36.416Z,58.33
2022-11-29T17:49:07.902Z,56.45
2022-11-29T17:51:55.459Z,56.97
2022-11-29T17:54:23.777Z,57.10
2022-11-29T17:56:51.907Z,59.33
2022-11-29T17:59:19.474Z,57.15
2022-11-29T18:01:50.042Z,57.67
2022-11-29T18:04:17.330Z,56.47
2022-11-29T18:06:49.512Z,57.83
2022-11-29T18:09:20.038Z,42.63
2022-11-29T18:11:49.897Z,57.17
2022-11-29T18:14:28.402Z,56.92
2022-11-29T18:16:55.598Z,56.65
2022-11-29T18:19:23.653Z,52.40
2022-11-29T18:21:51.550Z,55.70
2022-11-29T18:24:19.180Z,51.60
2022-11-29T18:26:46.766Z,53.83
2022-11-29T18:29:14.057Z,52.58
2022-11-29T18:31:44.954Z,56.72
2022-11-29T18:34:14.277Z,54.63
2022-11-29T18:36:45.806Z,53.17
2022-11-29T18:39:20.007Z,50.55
2022-11-29T18:41:50.201Z,56.35
2022-11-29T18:44:21.417Z,50.85
2022-11-29T18:46:50.632Z,50.10
2022-11-29T18:49:18.832Z,53.60
2022-11-29T18:51:48.295Z,51.60
2022-11-29T18:54:18.901Z,50.10
2022-11-29T18:56:46.602Z,50.47
2022-11-29T18:59:19.247Z,49.53
2022-11-29T19:01:48.726Z,47.90
2022-11-29T19:04:21.113Z,49.33
2022-11-29T19:06:49.089Z,47.65
2022-11-29T19:09:21.199Z,48.22
2022-11-29T19:11:49.725Z,46.30
2022-11-29T19:14:17.277Z,48.63
2022-11-29T19:16:47.190Z,50.05
2022-11-29T19:19:14.263Z,44.15
2022-11-29T19:21:41.974Z,48.90
2022-11-29T19:24:14.697Z,46.92
2022-11-29T19:26:45.004Z,46.80
2022-11-29T19:29:13.983Z,47.05
2022-11-29T19:31:41.242Z,43.60
2022-11-29T19:34:08.327Z,45.17
2022-11-29T19:36:37.352Z,50.80
2022-11-29T19:39:04.932Z,50.50
2022-11-29T19:41:34.556Z,48.17
2022-11-29T19:44:05.770Z,48.13
2022-11-29T19:46:40.194Z,45.17
2022-11-29T19:49:09.047Z,51.42
2022-11-29T19:51:37.187Z,47.22
2022-11-29T19:54:07.123Z,45.63
2022-11-29T19:56:34.599Z,47.63
2022-11-29T19:59:01.730Z,47.92
2022-11-29T20:01:39.760Z,46.03
2022-11-29T20:04:08.667Z,46.15
2022-11-29T20:06:35.815Z,43.83
2022-11-29T20:09:02.928Z,46.97
2022-11-29T20:11:30.050Z,44.38
2022-11-29T20:14:00.364Z,47.85
2022-11-29T20:16:29.746Z,45.75
2022-11-29T20:18:57.724Z,46.47
2022-11-29T20:21:31.795Z,46.72
2022-11-29T20:24:06.156Z,46.00
2022-11-29T20:26:37.118Z,48.25
2022-11-29T20:29:07.655Z,46.40
2022-11-29T20:31:38.675Z,46.47
2022-11-29T20:34:07.045Z,47.85
2022-11-29T20:36:48.718Z,46.05
2022-11-29T20:39:51.658Z,45.22
2022-11-29T20:42:50.289Z,49.35
2022-11-29T20:45:18.025Z,46.85
2022-11-29T20:47:52.217Z,45.40
2022-11-29T20:50:26.009Z,48.05
2022-11-29T20:53:56.041Z,48.58
2022-11-29T20:56:22.979Z,46.95
2022-11-29T20:58:50.196Z,48.97
2022-11-29T21:01:17.271Z,47.15
2022-11-29T21:03:44.263Z,44.30
2022-11-29T21:06:11.328Z,47.75
2022-11-29T21:08:38.256Z,47.13
2022-11-29T21:11:10.161Z,46.53
2022-11-29T21:13:38.114Z,45.53
2022-11-29T21:16:05.699Z,47.60
2022-11-29T21:18:33.889Z,49.80
2022-11-29T21:21:32.618Z,49.88
2022-11-29T21:24:56.519Z,52.10
2022-11-29T21:27:33.604Z,48.88
2022-11-29T21:30:05.704Z,50.38
2022-11-29T21:32:34.188Z,46.17
2022-11-29T21:35:01.165Z,49.28
2022-11-29T21:37:31.074Z,51.58
2022-11-29T21:39:58.051Z,49.58
2022-11-29T21:42:25.086Z,50.22
2022-11-29T21:44:52.113Z,52.08
2022-11-29T21:47:20.217Z,49.95
2022-11-29T21:49:47.391Z,49.35
2022-11-29T21:52:17.797Z,51.17
2022-11-29T21:54:49.216Z,50.30
2022-11-29T21:57:16.344Z,48.88
2022-11-29T21:59:43.311Z,52.45
2022-11-29T22:02:10.532Z,50.03
2022-11-29T22:04:37.528Z,50.03
2022-11-29T22:07:04.446Z,51.63
2022-11-29T22:09:31.511Z,49.97
2022-11-29T22:11:58.981Z,50.58
2022-11-29T22:27:14.423Z,54.40
2022-11-29T22:29:41.305Z,51.20
2022-11-29T22:32:08.224Z,51.70
2022-11-29T22:34:35.181Z,51.83
2022-11-29T22:37:02.084Z,51.95
2022-11-29T22:39:28.987Z,53.10
2022-11-29T22:41:55.940Z,52.67
2022-11-29T22:44:25.919Z,52.90
2022-11-29T22:46:53.039Z,52.28
2022-11-29T22:49:20.175Z,50.38
2022-11-29T22:51:47.862Z,50.60
2022-11-29T22:54:16.345Z,53.78
2022-11-29T22:56:45.203Z,50.90
2022-11-29T22:59:12.460Z,54.40
2022-11-29T23:01:41.669Z,52.90
2022-11-29T23:04:11.232Z,55.13
2022-11-29T23:06:44.569Z,53.42
2022-11-29T23:09:21.279Z,54.92
2022-11-29T23:11:55.729Z,56.67
2022-11-29T23:14:24.178Z,51.47
2022-11-29T23:16:51.887Z,50.80
2022-11-29T23:19:19.958Z,52.97
2022-11-29T23:21:47.390Z,51.35
2022-11-29T23:24:15.999Z,52.33
2022-11-29T23:26:47.387Z,57.60
2022-11-29T23:29:19.877Z,51.15
2022-11-29T23:31:50.120Z,54.75
2022-11-29T23:34:17.131Z,53.90
2022-11-29T23:36:49.645Z,56.00
2022-11-29T23:39:19.385Z,52.85
2022-11-29T23:41:47.853Z,53.03
2022-11-29T23:44:14.732Z,53.05
2022-11-29T23:46:41.660Z,56.97
2022-11-29T23:49:08.762Z,57.92
2022-11-29T23:51:35.671Z,56.17
2022-11-29T23:54:02.640Z,51.72
2022-11-29T23:56:35.064Z,55.60
2022-11-29T23:59:02.496Z,53.13
